createdAt,value
2018-01-23T00:01:17.936Z,93.10
2018-01-23T00:03:46.228Z,93.10
2018-01-23T00:06:14.540Z,93.50
2018-01-23T00:08:42.826Z,93.10
2018-01-23T00:11:11.139Z,93.20
2018-01-23T00:13:39.433Z,93.20
2018-01-23T00:16:07.752Z,93.20
2018-01-23T00:18:36.049Z,93.20
2018-01-23T00:21:04.368Z,93.30
2018-01-23T00:23:32.657Z,93.30
2018-01-23T00:26:00.967Z,93.40
2018-01-23T00:28:29.259Z,93.40
2018-01-23T00:30:57.571Z,93.40
2018-01-23T00:33:25.868Z,93.40
2018-01-23T00:35:54.192Z,93.30
2018-01-23T00:38:22.487Z,93.20
2018-01-23T00:40:50.809Z,93.20
2018-01-23T00:43:19.105Z,93.00
2018-01-23T00:45:47.413Z,92.90
2018-01-23T00:48:15.724Z,92.50
2018-01-23T00:50:44.028Z,92.80
2018-01-23T00:53:12.329Z,92.80
2018-01-23T00:55:40.643Z,92.70
2018-01-23T00:58:08.933Z,92.70
2018-01-23T01:00:37.297Z,92.70
2018-01-23T01:03:05.583Z,92.60
2018-01-23T01:05:33.882Z,92.60
2018-01-23T01:08:01.424Z,92.60
2018-01-23T01:10:29.715Z,92.50
2018-01-23T01:12:58.028Z,92.40
2018-01-23T01:15:26.316Z,92.30
2018-01-23T01:17:54.619Z,92.30
2018-01-23T01:20:22.907Z,92.30
2018-01-23T01:22:51.244Z,92.30
2018-01-23T01:25:19.543Z,92.30
2018-01-23T01:27:47.860Z,92.30
2018-01-23T01:30:16.143Z,92.20
2018-01-23T01:32:44.452Z,92.30
2018-01-23T01:35:12.743Z,92.30
2018-01-23T01:37:41.053Z,92.30
2018-01-23T01:40:09.344Z,92.30
2018-01-23T01:42:37.657Z,92.30
2018-01-23T01:45:05.951Z,92.20
2018-01-23T01:47:34.263Z,92.20
2018-01-23T01:50:02.544Z,92.20
2018-01-23T01:52:30.856Z,92.20
2018-01-23T01:54:59.150Z,92.30
2018-01-23T01:57:27.460Z,92.50
2018-01-23T01:59:55.750Z,92.50
2018-01-23T02:02:24.081Z,92.50
2018-01-23T02:04:51.600Z,92.50
2018-01-23T02:07:19.912Z,92.70
2018-01-23T02:09:48.198Z,92.90
2018-01-23T02:12:16.509Z,92.70
2018-01-23T02:14:44.805Z,92.80
2018-01-23T02:17:13.116Z,92.90
2018-01-23T02:19:41.399Z,92.80
2018-01-23T02:22:09.712Z,92.80
2018-01-23T02:24:38.007Z,92.90
2018-01-23T02:27:06.316Z,92.90
2018-01-23T02:29:34.607Z,93.20
2018-01-23T02:32:02.915Z,93.00
2018-01-23T02:34:31.197Z,92.90
2018-01-23T02:36:59.504Z,93.00
2018-01-23T02:39:27.792Z,93.00
2018-01-23T02:41:56.112Z,93.00
2018-01-23T02:44:24.405Z,92.90
2018-01-23T02:46:51.923Z,93.00
2018-01-23T02:49:20.226Z,93.00
2018-01-23T02:51:48.528Z,93.00
2018-01-23T02:54:16.837Z,93.00
2018-01-23T02:56:45.128Z,93.00
2018-01-23T02:59:13.439Z,93.00
2018-01-23T03:01:41.728Z,93.50
2018-01-23T03:04:10.044Z,92.70
2018-01-23T03:06:38.331Z,92.90
2018-01-23T03:09:06.651Z,93.00
2018-01-23T03:11:34.942Z,93.00
2018-01-23T03:14:02.471Z,93.00
2018-01-23T03:16:30.760Z,93.10
2018-01-23T03:18:59.063Z,93.10
2018-01-23T03:21:27.352Z,93.10
2018-01-23T03:23:55.660Z,93.10
2018-01-23T03:26:23.953Z,93.10
2018-01-23T03:28:52.269Z,93.00
2018-01-23T03:31:20.561Z,93.00
2018-01-23T03:33:48.875Z,93.10
2018-01-23T03:36:17.169Z,93.00
2018-01-23T03:38:45.488Z,93.10
2018-01-23T03:41:13.006Z,93.10
2018-01-23T03:43:41.320Z,93.10
2018-01-23T03:46:09.603Z,93.00
2018-01-23T03:48:37.915Z,93.10
2018-01-23T03:51:06.205Z,93.50
2018-01-23T03:53:34.532Z,93.10
2018-01-23T03:56:02.824Z,93.10
2018-01-23T03:58:31.136Z,93.00
2018-01-23T04:00:59.466Z,93.00
2018-01-23T04:03:27.755Z,93.00
2018-01-23T04:05:56.048Z,93.00
2018-01-23T04:08:24.355Z,93.00
2018-01-23T04:10:51.887Z,93.00
2018-01-23T04:13:20.192Z,92.90
2018-01-23T04:15:48.480Z,92.90
2018-01-23T04:18:16.788Z,92.90
2018-01-23T04:20:45.085Z,92.90
2018-01-23T04:23:13.372Z,92.90
2018-01-23T04:25:41.688Z,92.90
2018-01-23T04:28:09.420Z,93.20
2018-01-23T04:30:37.736Z,92.90
2018-01-23T04:33:06.033Z,92.90
2018-01-23T04:35:34.348Z,93.30
2018-01-23T04:38:02.645Z,92.90
2018-01-23T04:40:30.957Z,92.90
2018-01-23T04:42:59.245Z,92.90
2018-01-23T04:45:27.564Z,92.90
2018-01-23T04:47:55.851Z,92.90
2018-01-23T04:50:24.161Z,92.80
2018-01-23T04:52:52.447Z,92.90
2018-01-23T04:55:19.996Z,92.80
2018-01-23T04:57:48.287Z,92.80
2018-01-23T05:00:16.598Z,93.20
2018-01-23T05:02:44.897Z,92.80
2018-01-23T05:05:13.207Z,92.80
2018-01-23T05:07:41.504Z,92.80
2018-01-23T05:10:09.817Z,92.80
2018-01-23T05:12:38.112Z,92.80
2018-01-23T05:15:06.423Z,92.80
2018-01-23T05:17:34.707Z,92.90
2018-01-23T05:20:03.019Z,93.10
2018-01-23T05:22:31.322Z,92.90
2018-01-23T05:24:59.632Z,92.90
2018-01-23T05:27:27.924Z,92.90
2018-01-23T05:29:56.233Z,92.90
2018-01-23T05:32:24.520Z,93.00
2018-01-23T05:34:52.064Z,93.00
2018-01-23T05:37:20.351Z,93.00
2018-01-23T05:39:48.672Z,93.00
2018-01-23T05:42:16.967Z,92.90
2018-01-23T05:44:44.519Z,93.00
2018-01-23T05:47:12.046Z,93.00
2018-01-23T05:49:40.358Z,93.10
2018-01-23T05:52:08.646Z,93.10
2018-01-23T05:54:36.959Z,93.10
2018-01-23T05:57:05.252Z,93.00
2018-01-23T05:59:33.558Z,93.00
2018-01-23T06:02:01.856Z,93.00
2018-01-23T06:04:30.176Z,93.00
2018-01-23T06:06:58.476Z,93.00
2018-01-23T06:09:26.763Z,93.10
2018-01-23T06:11:55.134Z,93.10
2018-01-23T06:14:23.384Z,93.20
2018-01-23T06:16:51.701Z,93.50
2018-01-23T06:19:19.984Z,93.10
2018-01-23T06:21:48.353Z,93.10
2018-01-23T06:24:16.675Z,93.10
2018-01-23T06:26:44.988Z,93.20
2018-01-23T06:29:13.280Z,93.20
2018-01-23T06:31:41.587Z,93.20
2018-01-23T06:34:09.875Z,93.10
2018-01-23T06:36:38.183Z,93.10
2018-01-23T06:39:06.484Z,93.50
2018-01-23T06:41:34.799Z,93.20
2018-01-23T06:44:03.119Z,93.20
2018-01-23T06:46:31.432Z,93.20
2018-01-23T06:48:59.728Z,93.20
2018-01-23T06:51:28.041Z,93.20
2018-01-23T06:53:56.333Z,93.20
2018-01-23T06:56:24.644Z,93.20
2018-01-23T06:58:52.932Z,93.30
2018-01-23T07:01:21.248Z,93.30
2018-01-23T07:03:49.545Z,93.30
2018-01-23T07:06:17.883Z,93.20
2018-01-23T07:08:46.172Z,93.20
2018-01-23T07:11:14.486Z,93.20
2018-01-23T07:13:42.008Z,93.20
2018-01-23T07:16:10.327Z,93.20
2018-01-23T07:18:38.622Z,93.20
2018-01-23T07:21:06.927Z,93.20
2018-01-23T07:23:35.228Z,93.20
2018-01-23T07:26:02.775Z,93.10
2018-01-23T07:28:31.069Z,93.10
2018-01-23T07:30:59.380Z,93.20
2018-01-23T07:33:27.673Z,93.20
2018-01-23T07:35:55.221Z,93.20
2018-01-23T07:38:23.513Z,93.30
2018-01-23T07:40:51.824Z,93.20
2018-01-23T07:43:20.122Z,93.40
2018-01-23T07:45:48.444Z,93.30
2018-01-23T07:48:16.736Z,93.20
2018-01-23T07:50:45.118Z,93.20
2018-01-23T07:53:13.437Z,93.20
2018-01-23T07:55:41.727Z,93.20
2018-01-23T07:58:10.088Z,93.20
2018-01-23T08:00:38.384Z,93.50
2018-01-23T08:03:06.697Z,93.10
2018-01-23T08:05:34.988Z,93.10
2018-01-23T08:08:03.301Z,93.10
2018-01-23T08:10:31.588Z,93.00
2018-01-23T08:12:59.895Z,93.00
2018-01-23T08:15:28.194Z,93.00
2018-01-23T08:17:56.503Z,93.00
2018-01-23T08:20:24.794Z,92.90
2018-01-23T08:22:53.104Z,92.80
2018-01-23T08:25:20.627Z,92.80
2018-01-23T08:27:49.320Z,92.50
2018-01-23T08:30:17.599Z,92.40
2018-01-23T08:32:45.904Z,92.20
2018-01-23T08:35:14.197Z,92.20
2018-01-23T08:37:42.499Z,92.00
2018-01-23T08:40:10.787Z,92.00
2018-01-23T08:42:39.095Z,91.80
2018-01-23T08:45:07.399Z,91.80
2018-01-23T08:47:35.715Z,91.70
2018-01-23T08:50:04.007Z,91.60
2018-01-23T08:52:32.323Z,91.50
2018-01-23T08:55:00.622Z,91.40
2018-01-23T08:57:28.954Z,91.40
2018-01-23T08:59:57.253Z,91.30
2018-01-23T09:02:25.559Z,91.20
2018-01-23T09:04:53.851Z,91.10
2018-01-23T09:07:22.164Z,91.00
2018-01-23T09:09:50.447Z,90.80
2018-01-23T09:12:18.768Z,90.70
2018-01-23T09:14:47.063Z,90.40
2018-01-23T09:17:14.612Z,90.70
2018-01-23T09:19:42.908Z,89.20
2018-01-23T09:22:11.220Z,88.60
2018-01-23T09:24:39.520Z,88.10
2018-01-23T09:27:07.836Z,87.90
2018-01-23T09:29:36.119Z,87.10
2018-01-23T09:32:04.404Z,87.60
2018-01-23T09:34:32.725Z,86.20
2018-01-23T09:37:01.015Z,85.70
2018-01-23T09:39:29.329Z,85.10
2018-01-23T09:41:57.628Z,85.00
2018-01-23T09:44:25.936Z,84.40
2018-01-23T09:46:54.228Z,84.60
2018-01-23T09:49:22.544Z,84.80
2018-01-23T09:51:50.833Z,84.70
2018-01-23T09:54:19.154Z,84.70
2018-01-23T09:56:47.460Z,85.00
2018-01-23T09:59:15.781Z,85.10
2018-01-23T10:01:44.079Z,85.20
2018-01-23T10:04:12.396Z,85.40
2018-01-23T10:06:40.714Z,85.40
2018-01-23T10:09:09.024Z,85.50
2018-01-23T10:11:37.320Z,85.90
2018-01-23T10:14:05.628Z,86.00
2018-01-23T10:16:33.916Z,86.20
2018-01-23T10:19:02.232Z,86.00
2018-01-23T10:21:30.532Z,85.50
2018-01-23T10:23:58.843Z,85.50
2018-01-23T10:26:27.148Z,85.60
2018-01-23T10:28:55.463Z,85.90
2018-01-23T10:31:23.759Z,86.00
2018-01-23T10:33:52.082Z,85.90
2018-01-23T10:36:21.211Z,85.30
2018-01-23T10:38:49.541Z,85.70
2018-01-23T10:41:17.837Z,86.00
2018-01-23T10:43:46.168Z,85.70
2018-01-23T10:46:14.459Z,85.80
2018-01-23T10:48:42.785Z,85.50
2018-01-23T10:51:11.080Z,85.30
2018-01-23T10:53:39.395Z,85.10
2018-01-23T10:56:07.692Z,84.00
2018-01-23T10:58:36.003Z,84.00
2018-01-23T11:01:06.252Z,84.10
2018-01-23T11:03:34.584Z,84.00
2018-01-23T11:06:02.120Z,84.00
2018-01-23T11:08:30.444Z,83.10
2018-01-23T11:10:58.743Z,83.00
2018-01-23T11:13:27.055Z,82.80
2018-01-23T11:15:55.348Z,82.60
2018-01-23T11:18:23.676Z,82.20
2018-01-23T11:20:51.975Z,81.90
2018-01-23T11:23:20.271Z,81.90
2018-01-23T11:25:48.588Z,81.80
2018-01-23T11:28:16.880Z,81.10
2018-01-23T11:30:45.205Z,80.00
2018-01-23T11:33:13.499Z,79.70
2018-01-23T11:35:41.812Z,79.70
2018-01-23T11:38:10.118Z,79.10
2018-01-23T11:40:38.444Z,79.50
2018-01-23T11:43:06.748Z,79.90
2018-01-23T11:45:35.068Z,80.10
2018-01-23T11:48:03.367Z,80.40
2018-01-23T11:50:31.691Z,80.80
2018-01-23T11:52:59.981Z,81.40
2018-01-23T11:55:28.298Z,81.70
2018-01-23T11:57:56.601Z,81.00
2018-01-23T12:00:24.925Z,80.80
2018-01-23T12:02:53.225Z,80.30
2018-01-23T12:05:21.540Z,79.10
2018-01-23T12:07:49.073Z,79.10
2018-01-23T12:10:17.395Z,80.20
2018-01-23T12:12:45.706Z,78.70
2018-01-23T12:15:14.032Z,78.10
2018-01-23T12:17:42.324Z,78.40
2018-01-23T12:20:10.644Z,78.40
2018-01-23T12:22:38.936Z,79.30
2018-01-23T12:25:07.252Z,79.10
2018-01-23T12:27:35.544Z,79.20
2018-01-23T12:30:03.862Z,79.60
2018-01-23T12:32:32.164Z,79.80
2018-01-23T12:35:00.479Z,79.30
2018-01-23T12:37:28.765Z,78.70
2018-01-23T12:39:57.081Z,78.90
2018-01-23T12:42:25.375Z,78.90
2018-01-23T12:44:53.693Z,77.50
2018-01-23T12:47:22.000Z,78.30
2018-01-23T12:49:50.315Z,79.50
2018-01-23T12:52:18.607Z,79.20
2018-01-23T12:54:46.920Z,79.00
2018-01-23T12:57:14.456Z,79.00
2018-01-23T12:59:42.774Z,78.40
2018-01-23T13:02:11.064Z,77.80
2018-01-23T13:04:39.364Z,76.70
2018-01-23T13:07:07.688Z,75.80
2018-01-23T13:09:35.987Z,74.50
2018-01-23T13:12:04.309Z,74.80
2018-01-23T13:14:32.617Z,74.50
2018-01-23T13:17:00.936Z,74.90
2018-01-23T13:19:29.231Z,75.20
2018-01-23T13:21:57.540Z,75.20
2018-01-23T13:24:25.829Z,75.00
2018-01-23T13:26:54.136Z,75.30
2018-01-23T13:29:22.431Z,76.00
2018-01-23T13:31:50.748Z,76.10
2018-01-23T13:34:19.046Z,76.20
2018-01-23T13:36:47.374Z,76.70
2018-01-23T13:39:15.666Z,77.20
2018-01-23T13:41:43.221Z,77.20
2018-01-23T13:44:11.519Z,77.20
2018-01-23T13:46:39.845Z,77.40
2018-01-23T13:49:08.139Z,77.30
2018-01-23T13:51:36.463Z,77.20
2018-01-23T13:54:04.751Z,77.00
2018-01-23T13:56:33.072Z,76.60
2018-01-23T13:59:01.359Z,75.80
2018-01-23T14:01:29.679Z,75.60
2018-01-23T14:03:57.976Z,74.80
2018-01-23T14:06:26.304Z,74.70
2018-01-23T14:08:54.591Z,74.40
2018-01-23T14:11:22.921Z,74.50
2018-01-23T14:13:51.203Z,74.50
2018-01-23T14:16:19.520Z,75.60
2018-01-23T14:18:47.822Z,74.90
2018-01-23T14:21:16.144Z,74.70
2018-01-23T14:23:44.436Z,74.40
2018-01-23T14:26:12.748Z,74.60
2018-01-23T14:28:41.041Z,74.90
2018-01-23T14:31:09.344Z,75.00
2018-01-23T14:33:37.640Z,75.10
2018-01-23T14:36:05.955Z,75.60
2018-01-23T14:38:34.248Z,76.00
2018-01-23T14:41:02.567Z,76.40
2018-01-23T14:43:30.859Z,76.50
2018-01-23T14:45:59.152Z,76.90
2018-01-23T14:48:27.464Z,77.10
2018-01-23T14:50:55.768Z,77.30
2018-01-23T14:53:23.324Z,77.30
2018-01-23T14:55:50.860Z,77.70
2018-01-23T14:58:19.184Z,79.30
2018-01-23T15:00:47.489Z,78.90
2018-01-23T15:03:15.817Z,79.10
2018-01-23T15:05:44.110Z,79.50
2018-01-23T15:08:12.432Z,79.90
2018-01-23T15:10:40.732Z,80.20
2018-01-23T15:13:09.054Z,80.10
2018-01-23T15:15:37.360Z,80.40
2018-01-23T15:18:05.692Z,80.60
2018-01-23T15:20:33.992Z,80.80
2018-01-23T15:23:02.320Z,80.90
2018-01-23T15:25:29.853Z,81.00
2018-01-23T15:27:58.200Z,81.50
2018-01-23T15:30:26.496Z,81.80
2018-01-23T15:32:54.820Z,81.90
2018-01-23T15:35:23.113Z,82.10
2018-01-23T15:37:51.428Z,82.10
2018-01-23T15:40:19.732Z,82.30
2018-01-23T15:42:48.040Z,82.20
2018-01-23T15:45:16.328Z,82.90
2018-01-23T15:47:44.644Z,83.00
2018-01-23T15:50:12.927Z,83.10
2018-01-23T15:52:41.235Z,83.20
2018-01-23T15:55:09.532Z,83.40
2018-01-23T15:57:37.853Z,83.60
2018-01-23T16:00:06.145Z,83.70
2018-01-23T16:02:34.460Z,84.10
2018-01-23T16:05:01.983Z,84.10
2018-01-23T16:07:30.299Z,84.70
2018-01-23T16:09:58.603Z,85.00
2018-01-23T16:12:26.928Z,85.00
2018-01-23T16:14:55.225Z,85.60
2018-01-23T16:17:22.777Z,85.60
2018-01-23T16:19:51.075Z,86.40
2018-01-23T16:22:19.392Z,86.70
2018-01-23T16:24:46.923Z,86.70
2018-01-23T16:27:15.235Z,87.50
2018-01-23T16:29:43.527Z,87.90
2018-01-23T16:32:11.835Z,88.10
2018-01-23T16:34:39.384Z,88.10
2018-01-23T16:37:07.676Z,88.40
2018-01-23T16:39:35.987Z,88.40
2018-01-23T16:42:04.280Z,88.40
2018-01-23T16:44:32.592Z,88.40
2018-01-23T16:47:00.125Z,88.40
2018-01-23T16:49:28.434Z,89.10
2018-01-23T16:51:56.724Z,89.30
2018-01-23T16:54:24.263Z,89.30
2018-01-23T16:56:51.792Z,89.60
2018-01-23T16:59:20.108Z,90.10
2018-01-23T17:01:47.632Z,90.00
2018-01-23T17:04:15.948Z,90.10
2018-01-23T17:06:44.232Z,90.30
2018-01-23T17:09:12.565Z,90.30
2018-01-23T17:11:40.860Z,90.40
2018-01-23T17:14:09.180Z,90.50
2018-01-23T17:16:36.744Z,90.50
2018-01-23T17:19:05.052Z,90.50
2018-01-23T17:21:33.341Z,90.50
2018-01-23T17:24:01.651Z,90.50
2018-01-23T17:26:29.955Z,91.10
2018-01-23T17:28:58.269Z,90.90
2018-01-23T17:31:26.562Z,91.00
2018-01-23T17:33:54.875Z,91.30
2018-01-23T17:36:22.401Z,91.30
2018-01-23T17:38:50.715Z,91.40
2018-01-23T17:41:19.015Z,91.50
2018-01-23T17:43:47.333Z,91.40
2018-01-23T17:46:15.616Z,91.40
2018-01-23T17:48:43.927Z,91.30
2018-01-23T17:51:12.224Z,91.50
2018-01-23T17:53:40.542Z,91.40
2018-01-23T17:56:08.828Z,91.50
2018-01-23T17:58:37.131Z,91.50
2018-01-23T18:01:05.424Z,91.50
2018-01-23T18:03:33.736Z,91.40
2018-01-23T18:06:02.027Z,91.30
2018-01-23T18:08:30.348Z,91.30
2018-01-23T18:10:58.648Z,91.30
2018-01-23T18:13:26.943Z,91.40
2018-01-23T18:15:55.257Z,91.30
2018-01-23T18:18:23.544Z,91.30
2018-01-23T18:20:51.857Z,91.30
2018-01-23T18:23:20.147Z,91.20
2018-01-23T18:25:48.465Z,91.20
2018-01-23T18:28:16.759Z,91.20
2018-01-23T18:30:45.068Z,91.30
2018-01-23T18:33:13.359Z,91.30
2018-01-23T18:35:41.668Z,91.40
2018-01-23T18:38:09.187Z,91.30
2018-01-23T18:40:37.501Z,91.40
2018-01-23T18:43:05.028Z,91.40
2018-01-23T18:45:33.340Z,91.50
2018-01-23T18:48:01.637Z,91.50
2018-01-23T18:50:29.944Z,91.50
2018-01-23T18:52:58.236Z,91.60
2018-01-23T18:55:26.587Z,91.50
2018-01-23T18:57:54.863Z,91.50
2018-01-23T19:00:23.224Z,91.60
2018-01-23T19:02:51.492Z,91.60
2018-01-23T19:05:19.816Z,91.60
2018-01-23T19:07:48.116Z,91.60
2018-01-23T19:10:16.432Z,91.60
2018-01-23T19:12:44.729Z,91.70
2018-01-23T19:15:13.040Z,91.70
2018-01-23T19:17:41.332Z,91.80
2018-01-23T19:20:09.653Z,91.90
2018-01-23T19:22:37.954Z,91.90
2018-01-23T19:25:06.269Z,92.00
2018-01-23T19:27:34.560Z,92.00
2018-01-23T19:30:02.875Z,92.00
2018-01-23T19:32:31.168Z,92.10
2018-01-23T19:34:59.480Z,92.10
2018-01-23T19:37:27.780Z,92.10
2018-01-23T19:39:56.100Z,92.10
2018-01-23T19:42:24.400Z,92.10
2018-01-23T19:44:52.716Z,92.20
2018-01-23T19:47:21.012Z,92.20
2018-01-23T19:49:49.328Z,92.20
2018-01-23T19:52:17.615Z,92.30
2018-01-23T19:54:45.909Z,92.30
2018-01-23T19:57:13.456Z,92.30
2018-01-23T19:59:41.755Z,92.80
2018-01-23T20:02:10.080Z,92.70
2018-01-23T20:04:38.379Z,92.80
2018-01-23T20:07:06.748Z,93.00
2018-01-23T20:09:35.020Z,93.10
2018-01-23T20:12:03.340Z,93.10
2018-01-23T20:14:31.640Z,93.20
2018-01-23T20:16:59.955Z,93.30
2018-01-23T20:19:28.240Z,93.40
2018-01-23T20:21:56.556Z,93.40
2018-01-23T20:24:24.847Z,93.40
2018-01-23T20:26:53.161Z,93.50
2018-01-23T20:29:21.452Z,93.60
2018-01-23T20:31:49.778Z,93.60
2018-01-23T20:34:17.305Z,93.60
2018-01-23T20:36:45.623Z,93.80
2018-01-23T20:39:13.920Z,93.90
2018-01-23T20:41:42.236Z,94.00
2018-01-23T20:44:10.529Z,94.30
2018-01-23T20:46:38.854Z,94.20
2018-01-23T20:49:07.160Z,94.30
2018-01-23T20:51:35.479Z,94.50
2018-01-23T20:54:03.775Z,94.40
2018-01-23T20:56:32.096Z,94.40
2018-01-23T20:59:00.395Z,94.40
2018-01-23T21:01:28.716Z,94.30
2018-01-23T21:03:57.012Z,94.30
2018-01-23T21:06:25.331Z,94.30
2018-01-23T21:08:53.629Z,94.20
2018-01-23T21:11:21.944Z,94.20
2018-01-23T21:13:50.244Z,94.20
2018-01-23T21:16:18.560Z,94.30
2018-01-23T21:18:46.860Z,94.30
2018-01-23T21:21:15.183Z,94.30
2018-01-23T21:23:43.476Z,94.20
2018-01-23T21:26:11.800Z,94.20
2018-01-23T21:28:40.096Z,94.30
2018-01-23T21:31:08.413Z,94.30
2018-01-23T21:33:36.704Z,94.30
2018-01-23T21:36:05.008Z,94.40
2018-01-23T21:38:33.323Z,94.40
2018-01-23T21:41:01.615Z,94.40
2018-01-23T21:43:29.928Z,94.40
2018-01-23T21:45:58.216Z,94.40
2018-01-23T21:48:26.525Z,94.40
2018-01-23T21:50:54.825Z,94.80
2018-01-23T21:53:23.145Z,94.50
2018-01-23T21:55:51.448Z,94.50
2018-01-23T21:58:19.760Z,94.50
2018-01-23T22:00:48.057Z,94.60
2018-01-23T22:03:16.376Z,94.50
2018-01-23T22:05:44.674Z,94.40
2018-01-23T22:08:13.004Z,94.50
2018-01-23T22:10:41.292Z,94.40
2018-01-23T22:13:09.633Z,94.40
2018-01-23T22:15:37.923Z,94.50
2018-01-23T22:18:06.222Z,94.60
2018-01-23T22:20:34.512Z,94.60
2018-01-23T22:23:02.820Z,94.70
2018-01-23T22:25:31.116Z,94.70
2018-01-23T22:27:58.672Z,94.70
2018-01-23T22:30:26.971Z,94.80
2018-01-23T22:32:55.287Z,94.80
2018-01-23T22:35:23.575Z,94.70
2018-01-23T22:37:51.896Z,94.70
2018-01-23T22:40:20.183Z,94.70
2018-01-23T22:42:48.500Z,94.70
2018-01-23T22:45:16.796Z,94.80
2018-01-23T22:47:45.116Z,94.70
2018-01-23T22:50:13.408Z,94.70
2018-01-23T22:52:41.747Z,94.80
2018-01-23T22:55:10.044Z,94.80
2018-01-23T22:57:38.364Z,94.70
2018-01-23T23:00:06.660Z,94.80
2018-01-23T23:02:34.972Z,94.80
2018-01-23T23:05:03.257Z,94.90
2018-01-23T23:07:31.567Z,94.90
2018-01-23T23:09:59.851Z,94.80
2018-01-23T23:12:28.164Z,94.70
2018-01-23T23:14:56.452Z,94.70
2018-01-23T23:17:24.765Z,94.70
2018-01-23T23:19:53.061Z,94.70
2018-01-23T23:22:21.356Z,94.80
2018-01-23T23:24:49.668Z,94.80
2018-01-23T23:27:17.951Z,94.90
2018-01-23T23:29:46.264Z,94.90
2018-01-23T23:32:14.557Z,94.90
2018-01-23T23:34:42.873Z,94.90
2018-01-23T23:37:11.176Z,95.00
2018-01-23T23:39:39.475Z,95.00
2018-01-23T23:42:07.767Z,95.00
2018-01-23T23:44:35.316Z,95.10
2018-01-23T23:47:03.605Z,95.20
2018-01-23T23:49:31.914Z,95.30
2018-01-23T23:52:00.208Z,95.20
2018-01-23T23:54:28.528Z,95.30
2018-01-23T23:56:56.816Z,95.40
2018-01-23T23:59:25.132Z,95.40
